Time;durP1;ratioP1;P1;durP2;ratioP2;P2;SDS_P1;SDS_P2;PMS_P1;PMS_P2;Temp;Humidity;BMP_temperature;BMP_pressure;BME280_temperature;BME280_humidity;BME280_pressure;Samples;Min_cycle;Max_cycle;Signal;HPM_P1;HPM_P2
2023/03/29 00:15:09;;;;;;;;;25.00;24.00;;;;;4.46;37.75;99370.75;7478561;23;98538;31
2023/03/29 00:18:15;;;;;;;;;25.25;24.25;;;;;4.42;38.09;99377.44;6327726;23;98697;-66
2023/03/29 02:00:09;;;;;;;;;30.00;26.60;;;;;3.45;42.35;99356.16;6213830;22;99442;-65
2023/03/29 02:03:16;;;;;;;;;33.40;30.00;;;;;3.45;42.45;99362.31;6099127;28;96828;-64
2023/03/29 02:06:23;;;;;;;;;29.80;27.80;;;;;3.42;42.65;99359.97;6097596;28;96365;-64
2023/03/29 02:09:30;;;;;;;;;32.00;29.00;;;;;3.38;42.93;99363.97;6101869;28;96194;-64
2023/03/29 02:12:33;;;;;;;;;29.40;27.60;;;;;3.33;43.26;99366.28;6088626;28;99513;-65
2023/03/29 02:15:38;;;;;;;;;31.00;28.00;;;;;3.38;42.73;99366.63;6096455;28;97154;-65
2023/03/29 02:18:44;;;;;;;;;32.60;28.60;;;;;3.40;42.86;99359.31;6096018;28;96665;-65
2023/03/29 02:21:53;;;;;;;;;31.40;28.00;;;;;3.39;42.88;99360.31;6091120;28;96940;-65
2023/03/29 02:25:02;;;;;;;;;34.00;30.80;;;;;3.38;42.98;99355.13;6097840;28;96386;-65
2023/03/29 02:28:07;;;;;;;;;33.60;31.00;;;;;3.30;43.28;99355.97;6081694;28;99238;-65
2023/03/29 02:31:20;;;;;;;;;34.80;30.00;;;;;3.31;43.66;99359.47;6082584;28;96755;-65
2023/03/29 02:34:29;;;;;;;;;30.50;30.00;;;;;3.27;43.88;99358.13;6120173;28;96272;-65
2023/03/29 02:37:35;;;;;;;;;34.60;32.00;;;;;3.23;43.73;99360.25;6097302;28;96443;-66
2023/03/29 02:40:40;;;;;;;;;39.00;31.75;;;;;3.22;43.95;99361.28;6104153;28;96398;-66
2023/03/29 02:43:46;;;;;;;;;33.00;30.00;;;;;3.17;44.15;99354.78;6098659;28;96280;-65
2023/03/29 02:46:56;;;;;;;;;33.00;30.00;;;;;3.10;44.43;99359.06;6087295;28;98573;-65
2023/03/29 02:50:00;;;;;;;;;32.00;30.00;;;;;3.12;44.26;99360.59;6080057;28;96382;-66
2023/03/29 02:53:09;;;;;;;;;31.80;30.00;;;;;3.07;44.13;99354.09;6090225;28;96413;-65
2023/03/29 02:56:14;;;;;;;;;35.00;30.00;;;;;3.11;44.02;99358.91;6096031;28;96232;-65
2023/03/29 02:59:19;;;;;;;;;32.80;29.80;;;;;3.08;44.03;99358.41;6085372;28;98541;-65
2023/03/29 03:02:24;;;;;;;;;33.20;29.40;;;;;3.10;44.11;99367.06;6105844;28;98262;-65
2023/03/29 03:05:29;;;;;;;;;29.40;28.80;;;;;3.10;43.93;99359.91;6084227;28;96662;-66
2023/03/29 03:08:32;;;;;;;;;31.00;29.60;;;;;3.12;44.07;99355.25;6083867;28;99107;-65
2023/03/29 03:11:36;;;;;;;;;33.00;29.00;;;;;3.12;43.88;99352.59;6099038;28;96588;-65
2023/03/29 03:14:39;;;;;;;;;30.50;28.00;;;;;3.11;43.99;99363.41;6109168;28;96369;-66
2023/03/29 03:17:45;;;;;;;;;28.80;25.00;;;;;3.09;44.01;99368.88;6093824;28;96923;-65
2023/03/29 03:20:56;;;;;;;;;31.80;29.80;;;;;3.00;43.97;99357.38;6095746;28;97184;-65
2023/03/29 03:23:59;;;;;;;;;27.75;26.75;;;;;3.03;44.04;99366.88;6095052;28;96369;-65
2023/03/29 03:27:03;;;;;;;;;31.00;28.00;;;;;2.97;44.50;99367.53;6095904;28;96510;-66
2023/03/29 03:30:08;;;;;;;;;29.40;27.40;;;;;2.95;44.42;99370.34;6099005;28;96862;-65
2023/03/29 03:33:39;;;;;;;;;32.20;29.00;;;;;2.96;44.39;99363.19;6099049;28;98524;-65
2023/03/29 03:37:06;;;;;;;;;28.00;25.80;;;;;2.84;44.05;99356.50;6089351;28;96467;-65
2023/03/29 03:40:12;;;;;;;;;28.60;27.00;;;;;2.87;44.24;99366.84;6110940;28;96237;-65
2023/03/29 03:43:16;;;;;;;;;32.00;29.00;;;;;2.86;44.22;99368.66;6097962;28;96285;-65
2023/03/29 03:46:22;;;;;;;;;27.60;25.40;;;;;2.87;44.03;99366.84;6093205;28;98207;-65
2023/03/29 03:49:27;;;;;;;;;33.25;29.25;;;;;2.80;44.48;99368.47;6090875;28;96312;-65
2023/03/29 03:52:30;;;;;;;;;29.60;27.00;;;;;2.72;44.58;99369.28;6092425;28;96445;-65
2023/03/29 03:55:34;;;;;;;;;28.40;25.20;;;;;2.72;44.52;99368.44;6113945;28;97067;-65
2023/03/29 04:25:01;;;;;;;;;35.67;29.67;;;;;2.29;44.69;99327.66;7465938;22;99045;-66
2023/03/29 04:28:37;;;;;;;;;29.40;29.00;;;;;2.60;44.35;99379.34;6927959;22;99260;-66
2023/03/29 04:31:52;;;;;;;;;33.60;30.00;;;;;2.63;44.43;99370.25;6491236;22;100428;-67
2023/03/29 04:35:31;;;;;;;;;28.00;26.00;;;;;2.58;44.13;99364.56;7296091;22;99697;-67
2023/03/29 04:42:46;;;;;;;;;27.50;26.00;;;;;2.64;44.16;99368.41;7260238;22;99367;31
2023/03/29 04:45:50;;;;;;;;;32.80;29.00;;;;;2.70;43.99;99367.75;6110639;28;96588;-66
2023/03/29 04:49:12;;;;;;;;;31.40;25.60;;;;;2.72;43.92;99369.28;6088476;28;98468;-66
2023/03/29 04:52:20;;;;;;;;;30.40;28.40;;;;;2.73;44.04;99368.28;6098466;28;97599;-65
2023/03/29 04:55:26;;;;;;;;;26.20;24.40;;;;;2.69;43.37;99347.47;6115887;28;96862;-64
2023/03/29 04:58:37;;;;;;;;;26.80;24.20;;;;;2.92;43.04;99369.84;6099077;28;98514;-64
2023/03/29 05:01:41;;;;;;;;;27.80;24.00;;;;;3.00;43.09;99368.03;6110401;28;96798;-64
2023/03/29 05:04:44;;;;;;;;;24.60;23.00;;;;;3.09;42.76;99362.72;6082464;28;98328;-64
2023/03/29 05:07:51;;;;;;;;;28.20;25.40;;;;;3.18;42.78;99359.91;6110535;28;96489;-64
2023/03/29 05:10:59;;;;;;;;;27.80;24.40;;;;;3.27;42.22;99358.97;6093449;28;96730;-64
2023/03/29 05:14:06;;;;;;;;;27.50;26.50;;;;;3.34;42.26;99362.63;6116782;28;97518;-64
2023/03/29 05:17:11;;;;;;;;;28.00;25.00;;;;;3.35;42.33;99361.63;6098608;28;96428;-64
2023/03/29 05:20:15;;;;;;;;;28.00;25.00;;;;;3.31;41.86;99346.97;6095445;28;96503;-66
2023/03/29 05:23:21;;;;;;;;;25.00;23.75;;;;;3.33;41.13;99352.13;6108385;28;96305;-66
2023/03/29 05:26:50;;;;;;;;;26.60;26.00;;;;;3.45;41.19;99350.81;6126377;28;97175;-63
2023/03/29 05:29:54;;;;;;;;;23.00;22.00;;;;;3.63;40.76;99359.50;6104123;28;96279;-63
2023/03/29 05:33:09;;;;;;;;;24.00;23.00;;;;;3.76;40.40;99361.69;6112709;28;96485;-66
2023/03/29 05:36:16;;;;;;;;;22.00;20.00;;;;;3.78;39.84;99365.00;6116011;28;96346;-67
2023/03/29 05:39:22;;;;;;;;;22.20;21.40;;;;;3.91;39.88;99360.81;6094716;28;96614;-66
2023/03/29 05:42:26;;;;;;;;;23.80;20.80;;;;;4.00;39.83;99363.50;6092432;28;96371;-67
2023/03/29 05:45:33;;;;;;;;;21.25;20.25;;;;;4.16;39.12;99368.78;6086969;28;96474;-67
2023/03/29 05:48:38;;;;;;;;;20.20;18.20;;;;;4.21;38.91;99369.13;6087280;28;96629;-67
2023/03/29 05:51:44;;;;;;;;;20.00;19.80;;;;;4.27;38.46;99363.94;6098005;28;97530;-67
2023/03/29 05:54:47;;;;;;;;;18.00;17.80;;;;;4.36;38.24;99359.41;6105295;28;96827;-67
2023/03/29 05:57:51;;;;;;;;;24.00;23.00;;;;;4.53;38.59;99369.06;6109287;28;96937;-67
2023/03/29 06:00:59;;;;;;;;;17.80;16.60;;;;;4.64;37.88;99370.53;6094173;28;96683;-67
2023/03/29 06:04:29;;;;;;;;;18.25;16.25;;;;;4.82;37.71;99363.13;6113053;28;96313;-67
2023/03/29 06:07:56;;;;;;;;;21.00;19.00;;;;;4.86;37.53;99359.09;6092098;28;96253;-66
2023/03/29 06:11:25;;;;;;;;;16.00;15.00;;;;;5.07;37.32;99369.19;6093199;28;96445;-67
2023/03/29 06:15:09;;;;;;;;;20.00;17.00;;;;;5.37;36.89;99370.19;6024496;29;96159;-67
2023/03/29 06:18:19;;;;;;;;;21.00;18.00;;;;;5.50;36.45;99378.44;6012441;28;96207;-66
2023/03/29 06:21:25;;;;;;;;;17.00;16.40;;;;;5.70;36.25;99376.97;6082609;28;96379;-66
2023/03/29 06:24:28;;;;;;;;;17.00;15.00;;;;;5.93;36.25;99369.78;6106080;28;97991;-65
2023/03/29 06:27:41;;;;;;;;;16.60;15.00;;;;;5.94;35.53;99366.09;6107192;28;96630;-63
2023/03/29 06:30:46;;;;;;;;;18.00;17.00;;;;;6.15;35.61;99360.06;6107056;28;96403;-64
2023/03/29 06:33:49;;;;;;;;;15.75;14.50;;;;;6.47;35.50;99377.63;6125725;28;96350;-64
2023/03/29 06:37:13;;;;;;;;;16.20;13.60;;;;;6.67;35.22;99381.44;6128244;28;96250;-65
2023/03/29 06:40:19;;;;;;;;;15.00;14.00;;;;;6.74;34.41;99378.88;6091244;28;96647;-67
2023/03/29 06:43:23;;;;;;;;;14.80;13.20;;;;;6.92;34.59;99382.81;6110964;28;96822;-67
2023/03/29 06:46:41;;;;;;;;;14.50;14.50;;;;;6.99;32.71;99388.25;6093178;28;96661;-67
2023/03/29 06:49:45;;;;;;;;;12.20;11.20;;;;;7.10;33.10;99382.41;6102699;28;96782;-67
2023/03/29 06:53:07;;;;;;;;;12.20;11.80;;;;;7.15;32.96;99393.41;6109463;28;96203;-67
2023/03/29 06:56:11;;;;;;;;;15.40;14.40;;;;;7.42;32.07;99383.84;6117850;28;96486;-67
2023/03/29 06:59:15;;;;;;;;;15.00;13.50;;;;;7.62;32.56;99392.94;6109477;28;96232;-66
2023/03/29 07:02:24;;;;;;;;;15.60;14.00;;;;;7.74;32.13;99383.34;6082943;28;96464;-66
2023/03/29 07:05:47;;;;;;;;;16.00;14.00;;;;;8.06;31.85;99390.03;6082134;28;96306;-66
2023/03/29 07:08:54;;;;;;;;;11.60;11.20;;;;;8.21;30.95;99387.28;6066045;28;98811;-66
2023/03/29 07:12:16;;;;;;;;;14.00;13.00;;;;;8.36;31.64;99374.63;6081531;28;98771;-64
2023/03/29 07:15:20;;;;;;;;;11.00;10.00;;;;;8.66;30.86;99384.13;6065593;28;97323;-64
2023/03/29 07:18:40;;;;;;;;;17.00;15.00;;;;;8.93;30.90;99397.75;6099514;28;96288;-64
2023/03/29 07:21:46;;;;;;;;;16.40;14.40;;;;;9.30;30.48;99385.69;6118354;28;96415;-64
2023/03/29 07:24:52;;;;;;;;;15.00;14.40;;;;;9.71;29.56;99391.84;6123051;28;96585;-64
2023/03/29 07:27:55;;;;;;;;;14.00;13.00;;;;;10.09;29.19;99396.66;6100490;28;96638;-64
2023/03/29 07:31:04;;;;;;;;;17.00;14.60;;;;;10.30;28.26;99393.78;6087323;28;96965;-64
2023/03/29 07:34:09;;;;;;;;;15.00;15.00;;;;;10.38;28.13;99390.88;6096144;28;96324;-64
2023/03/29 07:37:13;;;;;;;;;14.00;12.50;;;;;10.71;28.40;99394.34;6103476;28;96174;-64
2023/03/29 07:40:22;;;;;;;;;15.00;14.00;;;;;10.90;27.50;99386.47;6075915;28;96928;-64
2023/03/29 07:43:33;;;;;;;;;16.20;15.00;;;;;11.32;27.80;99380.50;6090965;28;96716;-64
2023/03/29 07:46:36;;;;;;;;;14.40;13.40;;;;;11.82;26.88;99394.19;6086941;28;96318;-64
2023/03/29 07:49:40;;;;;;;;;14.20;12.80;;;;;11.96;25.42;99384.94;6092028;28;96404;-64
2023/03/29 07:52:44;;;;;;;;;12.00;12.00;;;;;12.10;25.47;99387.31;6077911;28;96842;-64
2023/03/29 07:55:51;;;;;;;;;12.00;10.00;;;;;12.08;24.41;99384.00;6097529;28;96391;-64
2023/03/29 07:59:13;;;;;;;;;11.40;11.00;;;;;12.39;24.71;99385.00;6095226;28;96901;-64
2023/03/29 08:02:19;;;;;;;;;13.00;12.40;;;;;12.57;24.41;99383.19;6092448;28;96325;-63
2023/03/29 08:05:26;;;;;;;;;9.00;8.40;;;;;13.09;23.76;99375.56;6092268;28;97613;-64
2023/03/29 08:08:49;;;;;;;;;11.00;10.00;;;;;13.69;22.87;99367.50;6109865;28;96367;-64
2023/03/29 08:11:54;;;;;;;;;9.00;8.00;;;;;13.96;21.86;99376.94;6116229;28;98482;-64
2023/03/29 08:15:04;;;;;;;;;10.00;9.00;;;;;14.34;21.14;99373.81;6116640;28;96261;-64
2023/03/29 08:18:09;;;;;;;;;11.00;9.50;;;;;14.49;20.25;99371.50;6101735;28;96282;-64
2023/03/29 08:21:14;;;;;;;;;8.60;8.40;;;;;14.64;19.75;99371.88;6100348;28;96546;-64
2023/03/29 08:24:22;;;;;;;;;8.00;8.00;;;;;14.88;19.70;99356.38;6099190;28;96297;-64
2023/03/29 08:27:32;;;;;;;;;9.00;8.00;;;;;14.96;19.82;99366.03;6076213;28;96655;-64
2023/03/29 08:30:36;;;;;;;;;9.00;8.40;;;;;15.00;18.21;99367.25;6074920;28;98687;-64
2023/03/29 08:33:42;;;;;;;;;8.00;7.00;;;;;14.99;18.10;99363.69;6092229;28;96398;-64
2023/03/29 08:37:23;;;;;;;;;7.00;7.00;;;;;15.10;17.92;99359.31;6059798;28;96937;-64
2023/03/29 08:40:30;;;;;;;;;7.00;5.00;;;;;15.06;17.37;99348.09;6074051;28;96696;-64
2023/03/29 08:44:09;;;;;;;;;8.00;7.25;;;;;15.17;17.93;99363.53;6089146;28;98398;-64
2023/03/29 08:47:39;;;;;;;;;6.00;6.00;;;;;15.30;17.75;99358.88;6096331;28;96488;-64
2023/03/29 08:50:51;;;;;;;;;6.50;6.00;;;;;15.45;17.51;99364.63;6095907;28;96345;-64
2023/03/29 08:54:02;;;;;;;;;8.00;7.40;;;;;15.89;17.77;99357.63;6087890;28;96653;-64
2023/03/29 08:57:19;;;;;;;;;8.00;6.60;;;;;15.93;17.19;99337.03;6080856;28;98371;-64
2023/03/29 09:00:34;;;;;;;;;6.00;6.00;;;;;16.12;16.82;99356.66;6078383;28;96697;-64
2023/03/29 09:03:42;;;;;;;;;5.50;5.50;;;;;16.31;17.00;99345.31;6094571;28;96258;-64
2023/03/29 09:06:51;;;;;;;;;9.00;8.00;;;;;16.73;17.89;99350.31;6079769;28;96745;-64
2023/03/29 09:10:03;;;;;;;;;10.40;9.40;;;;;16.77;17.38;99337.84;6088827;28;96239;-64
2023/03/29 09:13:23;;;;;;;;;9.00;9.00;;;;;17.12;17.52;99345.66;6091193;28;96278;-64
2023/03/29 09:16:34;;;;;;;;;7.00;6.00;;;;;17.29;17.66;99335.53;6091132;28;98660;-64
2023/03/29 09:19:45;;;;;;;;;8.00;8.00;;;;;17.66;16.95;99335.72;6060383;28;98819;-64
2023/03/29 09:23:01;;;;;;;;;11.50;10.00;;;;;17.68;16.58;99336.28;6077336;28;96355;-65
2023/03/29 09:26:21;;;;;;;;;6.33;6.00;;;;;17.34;17.03;99319.25;6061386;28;96830;-65
2023/03/29 09:29:56;;;;;;;;;5.00;5.00;;;;;17.65;16.09;99329.44;6078297;28;96537;-64
2023/03/29 09:33:41;;;;;;;;;3.00;3.00;;;;;17.69;16.14;99327.84;6101353;28;96388;-64
2023/03/29 09:36:57;;;;;;;;;6.00;5.00;;;;;17.69;16.31;99324.31;6105896;28;96224;-64
2023/03/29 09:40:03;;;;;;;;;5.00;4.00;;;;;17.75;16.68;99317.81;6106329;28;98412;-65
2023/03/29 09:43:29;;;;;;;;;4.00;3.60;;;;;18.18;16.89;99316.81;6122192;28;96499;-65
2023/03/29 09:46:39;;;;;;;;;4.00;4.00;;;;;18.37;16.01;99318.09;6106985;28;96320;-64
2023/03/29 09:49:49;;;;;;;;;6.00;5.00;;;;;18.97;16.34;99311.38;6106400;28;96370;-64
2023/03/29 09:52:52;;;;;;;;;6.00;6.00;;;;;19.20;16.21;99315.59;6090508;28;96991;-64
2023/03/29 09:56:00;;;;;;;;;4.00;4.00;;;;;19.35;15.74;99312.91;6096231;28;96647;-64
2023/03/29 09:59:39;;;;;;;;;5.00;4.50;;;;;19.83;15.96;99303.47;6091968;28;96242;-63
2023/03/29 10:02:51;;;;;;;;;4.25;4.25;;;;;20.02;14.89;99306.50;6096799;28;96145;-64
2023/03/29 10:06:01;;;;;;;;;3.60;3.00;;;;;20.39;15.33;99292.53;6098212;28;96821;-64
2023/03/29 10:09:15;;;;;;;;;6.00;6.00;;;;;20.58;13.76;99299.06;6080628;28;98741;-65
2023/03/29 10:12:21;;;;;;;;;4.00;4.00;;;;;20.46;13.83;99301.31;6098000;28;96633;-64
2023/03/29 10:15:27;;;;;;;;;4.80;4.00;;;;;20.81;13.21;99293.03;6104446;28;96705;-64
2023/03/29 10:18:34;;;;;;;;;5.50;5.50;;;;;20.44;13.66;99279.66;6076980;28;96707;-64
2023/03/29 10:21:41;;;;;;;;;5.40;5.40;;;;;20.68;14.23;99288.09;6107859;28;96618;-64
2023/03/29 10:24:50;;;;;;;;;4.00;3.80;;;;;20.75;13.76;99294.13;6107770;28;96868;-65
2023/03/29 10:28:02;;;;;;;;;5.00;4.00;;;;;20.33;14.32;99292.53;6109772;28;96299;-65
2023/03/29 10:31:06;;;;;;;;;6.00;6.00;;;;;20.36;14.72;99282.97;6108912;28;96337;-65
2023/03/29 10:34:14;;;;;;;;;4.25;4.00;;;;;20.53;14.58;99283.47;6089926;28;96501;-65
2023/03/29 10:37:22;;;;;;;;;6.40;5.00;;;;;20.73;14.56;99285.34;6106135;28;96550;-65
2023/03/29 10:40:32;;;;;;;;;6.00;5.00;;;;;20.91;13.61;99276.53;6110228;28;96548;-65
2023/03/29 10:43:38;;;;;;;;;6.00;6.00;;;;;21.15;14.26;99277.56;6099838;28;96860;-64
2023/03/29 10:46:43;;;;;;;;;7.00;6.00;;;;;20.92;14.50;99266.38;6106491;28;96766;-64
2023/03/29 10:49:51;;;;;;;;;5.00;5.00;;;;;20.73;13.21;99261.50;6104340;28;96366;-65
2023/03/29 10:52:59;;;;;;;;;4.00;4.00;;;;;20.77;13.98;99260.97;6096473;28;96216;-65
2023/03/29 10:56:23;;;;;;;;;5.00;5.00;;;;;20.51;14.32;99258.31;6094519;28;96990;-65
2023/03/29 10:59:29;;;;;;;;;4.60;4.60;;;;;20.65;15.29;99239.34;6109002;28;96692;-65
2023/03/29 11:03:14;;;;;;;;;3.00;3.00;;;;;20.69;14.11;99248.66;6100781;28;96334;-65
2023/03/29 11:06:28;;;;;;;;;4.60;4.00;;;;;21.25;13.95;99254.75;6091917;28;96317;-65
2023/03/29 11:09:48;;;;;;;;;5.25;5.00;;;;;21.55;12.72;99248.28;6103232;28;96312;-65
2023/03/29 11:13:00;;;;;;;;;5.00;5.00;;;;;21.74;13.35;99246.50;6087667;28;96345;-65
2023/03/29 11:16:15;;;;;;;;;6.00;5.00;;;;;21.65;13.99;99219.94;6092544;28;96383;-65
2023/03/29 11:19:44;;;;;;;;;5.00;5.00;;;;;21.91;13.69;99240.59;6090917;28;96875;-65
2023/03/29 11:22:56;;;;;;;;;7.00;6.00;;;;;21.85;13.23;99238.97;6083940;28;96771;-65
2023/03/29 11:26:11;;;;;;;;;5.00;5.00;;;;;21.98;13.43;99241.94;6117141;28;97027;-65
2023/03/29 11:29:22;;;;;;;;;6.00;5.00;;;;;21.72;13.39;99243.22;6119418;28;96285;-64
2023/03/29 11:32:33;;;;;;;;;4.00;4.00;;;;;21.69;12.61;99229.25;6102379;28;99214;-64
2023/03/29 11:35:48;;;;;;;;;5.80;5.20;;;;;21.72;13.16;99226.75;6099743;28;97022;-64
2023/03/29 11:39:03;;;;;;;;;6.00;6.00;;;;;21.80;12.66;99226.13;6114778;28;96510;-64
2023/03/29 11:42:16;;;;;;;;;5.00;4.00;;;;;21.57;12.75;99222.19;6097564;28;96820;-65
2023/03/29 11:45:29;;;;;;;;;5.00;5.00;;;;;21.54;13.25;99214.53;6099179;28;96876;-64
2023/03/29 11:48:37;;;;;;;;;4.50;4.00;;;;;21.40;13.92;99205.31;6118760;28;96213;-65
2023/03/29 11:51:45;;;;;;;;;7.60;7.00;;;;;21.57;14.03;99208.47;6115853;28;96820;-65
2023/03/29 11:54:56;;;;;;;;;3.20;3.20;;;;;21.33;12.61;99207.53;6118926;28;96566;-65
2023/03/29 11:58:06;;;;;;;;;4.25;4.25;;;;;21.23;13.47;99202.13;6117725;28;96444;-64
2023/03/29 12:01:15;;;;;;;;;7.50;6.50;;;;;21.28;13.80;99196.59;6099791;28;96821;-64
2023/03/29 12:04:24;;;;;;;;;8.60;7.40;;;;;20.91;13.59;99188.03;6089897;28;96354;-64
2023/03/29 12:07:34;;;;;;;;;8.00;7.00;;;;;20.83;14.23;99197.63;6105561;28;96479;-64
2023/03/29 12:10:41;;;;;;;;;6.40;5.60;;;;;20.90;12.33;99187.19;6111700;28;96371;-63
2023/03/29 12:13:52;;;;;;;;;7.00;6.60;;;;;20.82;13.21;99185.03;6116753;28;96489;-64
2023/03/29 12:17:00;;;;;;;;;6.00;5.40;;;;;20.98;14.30;99183.84;6101804;28;96688;-65
2023/03/29 12:20:12;;;;;;;;;4.00;4.00;;;;;20.94;13.78;99181.97;6117077;28;96341;-64
2023/03/29 12:23:18;;;;;;;;;5.20;5.00;;;;;21.10;14.59;99175.31;6102906;28;96316;-64
2023/03/29 12:26:46;;;;;;;;;4.00;4.00;;;;;21.11;13.91;99172.25;6119121;28;96266;-65
2023/03/29 12:30:12;;;;;;;;;4.00;4.00;;;;;20.68;13.31;99178.50;6102248;28;96490;-65
2023/03/29 12:33:50;;;;;;;;;7.60;7.00;;;;;20.56;13.71;99162.41;6117590;28;96262;-65
2023/03/29 12:37:35;;;;;;;;;4.25;4.25;;;;;20.54;13.53;99172.00;6100161;28;97428;-64
2023/03/29 12:41:16;;;;;;;;;4.20;4.00;;;;;20.18;13.66;99158.38;6080705;28;98382;-65
2023/03/29 12:44:40;;;;;;;;;7.00;7.00;;;;;19.88;13.04;99156.53;6098841;28;98378;-65
2023/03/29 12:48:00;;;;;;;;;6.60;6.00;;;;;19.84;14.06;99158.16;6115530;28;96238;-65
2023/03/29 12:51:07;;;;;;;;;6.00;6.00;;;;;19.56;14.20;99150.53;6118902;28;96285;-65
2023/03/29 12:54:15;;;;;;;;;6.00;5.75;;;;;19.39;14.49;99147.22;6101973;28;96729;-68
2023/03/29 12:57:21;;;;;;;;;8.00;7.00;;;;;19.60;14.87;99151.63;6084917;28;96342;-68
2023/03/29 13:00:32;;;;;;;;;7.50;7.50;;;;;19.50;14.64;99140.69;6066419;28;98943;-68
2023/03/29 13:03:47;;;;;;;;;6.00;6.00;;;;;19.56;15.02;99134.13;6087508;28;96622;-67
2023/03/29 13:07:02;;;;;;;;;6.00;6.00;;;;;19.52;14.66;99135.75;6088252;28;96560;-68
2023/03/29 13:10:09;;;;;;;;;5.60;5.60;;;;;19.24;14.93;99130.81;6087556;28;96830;-67
2023/03/29 13:13:18;;;;;;;;;7.00;6.80;;;;;19.32;16.15;99125.63;6073296;28;97006;-68
2023/03/29 13:16:30;;;;;;;;;7.00;6.00;;;;;19.49;15.33;99130.84;6074238;28;96839;-67
2023/03/29 13:19:43;;;;;;;;;7.00;6.00;;;;;19.37;15.72;99128.34;6074415;28;96683;-68
2023/03/29 13:22:58;;;;;;;;;7.00;6.00;;;;;19.42;16.14;99122.06;6090043;28;96240;-69
2023/03/29 13:26:22;;;;;;;;;4.00;4.00;;;;;19.42;15.48;99119.31;6093923;28;97036;-68
2023/03/29 13:30:00;;;;;;;;;7.00;6.00;;;;;19.56;15.76;99120.44;6075582;28;96843;-69
2023/03/29 13:33:22;;;;;;;;;7.00;6.00;;;;;19.57;15.11;99115.81;6088372;28;96341;-69
2023/03/29 13:36:44;;;;;;;;;10.00;10.00;;;;;19.54;15.68;99103.50;6069826;28;96584;-68
2023/03/29 13:39:50;;;;;;;;;6.00;5.00;;;;;19.25;15.17;99091.44;6073353;28;96690;-68
2023/03/29 13:42:58;;;;;;;;;5.50;5.50;;;;;19.26;15.82;99102.09;6090681;28;96561;-68
2023/03/29 13:46:23;;;;;;;;;5.80;5.80;;;;;18.92;15.46;99096.31;6093122;28;96229;-68
2023/03/29 13:49:31;;;;;;;;;7.20;7.00;;;;;18.70;15.96;99100.38;6093025;28;96493;-68
2023/03/29 13:52:41;;;;;;;;;5.00;5.00;;;;;18.73;16.33;99088.91;6058218;28;98736;-69
2023/03/29 13:55:49;;;;;;;;;7.67;7.67;;;;;18.53;16.62;99084.19;6092711;28;96453;-68
2023/03/29 13:59:00;;;;;;;;;6.00;6.00;;;;;18.55;16.77;99079.31;6087328;28;96886;-68
2023/03/29 14:02:06;;;;;;;;;7.00;7.00;;;;;18.60;16.46;99079.34;6073617;28;96691;-67
2023/03/29 14:05:13;;;;;;;;;5.75;5.00;;;;;18.53;17.11;99073.25;6062143;28;96924;-68
2023/03/29 14:08:23;;;;;;;;;7.00;5.60;;;;;18.35;16.94;99074.56;6090988;28;96853;-68
2023/03/29 14:11:29;;;;;;;;;9.00;8.00;;;;;18.46;16.95;99068.06;6073558;28;96849;-69
2023/03/29 14:14:32;;;;;;;;;7.00;6.00;;;;;18.46;16.64;99069.97;6092160;28;97179;-67
2023/03/29 14:17:37;;;;;;;;;5.40;5.00;;;;;18.37;16.70;99063.41;6091899;28;96696;-67
2023/03/29 14:20:44;;;;;;;;;8.00;8.00;;;;;18.36;16.43;99072.66;6090682;28;96335;-67
2023/03/29 14:23:55;;;;;;;;;5.80;5.40;;;;;18.48;16.75;99062.31;6094655;28;96221;-68
2023/03/29 14:27:01;;;;;;;;;7.40;7.00;;;;;18.52;17.14;99041.59;6082947;28;96573;-68
2023/03/29 14:30:20;;;;;;;;;9.00;8.00;;;;;18.17;17.55;99056.78;6071484;28;96662;-67
2023/03/29 14:33:26;;;;;;;;;8.00;8.00;;;;;18.11;17.73;99062.47;6088214;28;96383;-68
2023/03/29 14:36:32;;;;;;;;;5.00;5.00;;;;;18.07;17.61;99055.91;6081381;28;96753;-68
2023/03/29 14:39:38;;;;;;;;;9.00;8.00;;;;;17.95;17.79;99058.84;6068237;28;98504;-68
2023/03/29 14:42:42;;;;;;;;;6.00;6.00;;;;;17.97;17.53;99059.41;6096520;28;97033;-69
2023/03/29 14:45:46;;;;;;;;;6.00;6.00;;;;;18.13;18.02;99057.59;6065779;28;96547;-68
2023/03/29 14:48:50;;;;;;;;;6.40;6.40;;;;;18.27;17.78;99061.47;6061475;28;97119;-69
2023/03/29 14:51:54;;;;;;;;;9.00;8.00;;;;;18.27;18.59;99064.19;6059435;28;96578;-68
2023/03/29 14:55:02;;;;;;;;;9.60;8.00;;;;;17.89;18.64;99051.72;6086424;28;97142;-68
2023/03/29 14:58:18;;;;;;;;;8.00;8.00;;;;;17.55;18.98;99053.13;6088473;28;96524;-68
2023/03/29 15:01:24;;;;;;;;;6.00;6.00;;;;;17.30;20.15;99049.13;6107111;28;97307;-65
2023/03/29 15:04:33;;;;;;;;;6.20;5.20;;;;;17.08;20.74;99053.06;6098389;28;96527;-65
2023/03/29 15:07:38;;;;;;;;;5.20;5.00;;;;;16.98;20.96;99052.97;6079871;28;99108;-65
2023/03/29 15:10:43;;;;;;;;;6.00;5.80;;;;;16.89;20.10;99039.00;6088042;28;96602;-64
2023/03/29 15:13:49;;;;;;;;;3.75;3.75;;;;;16.76;20.97;99045.69;6092160;28;97339;-65
2023/03/29 15:16:56;;;;;;;;;5.80;5.80;;;;;16.59;20.69;99044.16;6089776;28;98635;-65
2023/03/29 15:20:09;;;;;;;;;5.00;5.00;;;;;16.44;20.19;99053.78;6091071;28;99338;-65
2023/03/29 15:23:24;;;;;;;;;6.00;6.00;;;;;16.37;20.69;99046.91;6081277;28;98506;-65
2023/03/29 15:26:32;;;;;;;;;6.40;6.40;;;;;16.48;20.44;99046.72;6090936;28;96312;-65
2023/03/29 15:29:40;;;;;;;;;9.00;8.00;;;;;16.83;21.29;99037.31;6099827;28;96596;-64
2023/03/29 15:32:44;;;;;;;;;6.00;4.60;;;;;16.48;21.86;99037.75;6098714;28;96848;-65
2023/03/29 15:35:50;;;;;;;;;8.00;7.00;;;;;16.12;21.82;99041.16;6083553;28;96350;-65
2023/03/29 15:38:54;;;;;;;;;7.50;7.25;;;;;15.77;22.18;99031.47;6081387;28;96669;-65
2023/03/29 15:41:59;;;;;;;;;10.00;8.40;;;;;15.59;22.70;99026.31;6103745;28;96447;-65
2023/03/29 15:45:05;;;;;;;;;8.00;7.00;;;;;15.38;22.58;99030.63;6080849;28;96617;-65
2023/03/29 15:48:16;;;;;;;;;9.00;8.00;;;;;15.22;23.33;99027.91;6099447;28;96363;-65
2023/03/29 15:51:20;;;;;;;;;9.00;8.20;;;;;15.11;23.33;99018.78;6095916;28;96692;-65
2023/03/29 15:54:23;;;;;;;;;8.00;8.00;;;;;15.01;23.59;99018.63;6086799;28;96800;-65
2023/03/29 15:57:32;;;;;;;;;6.40;6.00;;;;;14.82;23.31;99001.75;6099926;28;97174;-65
2023/03/29 16:00:39;;;;;;;;;7.00;7.00;;;;;14.77;23.19;99020.66;6081226;28;98530;-65
2023/03/29 16:03:47;;;;;;;;;9.50;9.25;;;;;14.53;23.53;99024.56;6084303;28;96680;-65
2023/03/29 16:06:53;;;;;;;;;8.00;7.00;;;;;14.38;23.49;99014.28;6079777;28;97879;-65
2023/03/29 16:09:57;;;;;;;;;7.00;7.00;;;;;14.34;23.64;99021.22;6064501;28;97786;-65
2023/03/29 16:13:02;;;;;;;;;9.40;8.00;;;;;14.31;23.69;99019.00;6075557;28;98024;-65
2023/03/29 16:16:06;;;;;;;;;20.00;18.40;;;;;14.34;23.95;99015.78;6074901;28;98788;-64
2023/03/29 16:19:11;;;;;;;;;8.20;7.80;;;;;14.37;24.03;99014.53;6062019;28;96594;-65
2023/03/29 16:22:14;;;;;;;;;6.20;5.80;;;;;14.41;23.91;99004.84;6070888;28;98813;-65
2023/03/29 16:25:22;;;;;;;;;8.50;7.25;;;;;14.31;23.92;98994.59;6078410;28;96444;-65
2023/03/29 16:28:27;;;;;;;;;8.00;8.00;;;;;14.29;23.62;99008.38;6087789;28;97000;-65
2023/03/29 16:31:30;;;;;;;;;8.60;7.60;;;;;14.19;24.03;99013.63;6089058;28;98553;-65
2023/03/29 16:34:34;;;;;;;;;9.00;9.00;;;;;14.09;24.51;99001.75;6097671;28;97567;-65
2023/03/29 16:37:38;;;;;;;;;11.00;10.40;;;;;13.99;24.54;98998.84;6087625;28;97283;-64
2023/03/29 16:40:41;;;;;;;;;13.00;12.00;;;;;13.92;24.37;99007.13;6070408;28;98432;-65
2023/03/29 16:43:46;;;;;;;;;12.00;10.50;;;;;13.88;24.82;99004.06;6099761;28;97393;-65
2023/03/29 16:46:49;;;;;;;;;11.00;11.00;;;;;13.78;24.91;98998.41;6105338;28;96763;-65
2023/03/29 16:49:52;;;;;;;;;13.60;10.60;;;;;13.59;25.38;99007.78;6101775;28;96954;-65
2023/03/29 16:52:55;;;;;;;;;13.00;13.00;;;;;13.47;25.50;98998.84;6079074;28;96711;-65
2023/03/29 16:55:59;;;;;;;;;11.40;10.40;;;;;13.33;25.72;98995.56;6092340;28;96357;-65
2023/03/29 16:59:04;;;;;;;;;13.00;11.00;;;;;13.19;25.93;98986.06;6096407;28;96671;-64
2023/03/29 17:02:07;;;;;;;;;17.00;17.00;;;;;13.11;26.20;98991.81;6093123;28;96811;-65
2023/03/29 17:05:11;;;;;;;;;12.20;10.60;;;;;13.00;26.51;98993.41;6094762;28;96825;-65
2023/03/29 17:08:15;;;;;;;;;12.00;11.00;;;;;12.90;26.50;98995.88;6088642;28;96811;-65
2023/03/29 17:11:21;;;;;;;;;10.60;10.00;;;;;12.80;26.66;98994.81;6074665;28;98445;-69
2023/03/29 17:14:26;;;;;;;;;11.00;11.00;;;;;12.74;26.77;98991.16;6083241;28;96574;-68